• Join FlightAware (Why Join?)
  • Login
  • US Flag 
03:03PM EDT


 

Airport Tracker/Info


-or-


 

Live Flight TrackerFlight Track Log ✈ N41EA ✈ 01-May-2013 ✈ KAPC - KUAO

Flight Track Log - Related Links

Times and Time Zones

All times are in EDT time to prevent confusion due to time zone crossing. See the N41EA flight status page for this flight to view local times or setup timezone preferences in your user account.

Time Position Orientation Groundspeed Altitude Reporting Facility
EDT Latitude Longitude Course Direction KTS MPH feet Rate Location/Type
10:34PM 38.1792 -122.3472 249° West 198 228 2,100  Level Oakland Center
10:35PM 38.2153 -122.3978 312° West 218 251 3,600 1,560 Climbing Oakland Center
10:36PM 38.2806 -122.4014 358° North 232 267 5,400 1,620 Climbing Oakland Center
10:37PM 38.6969 -122.3080 356° North  Level FlightAware Approximate
10:37PM 38.3492 -122.4069 356° North 243 280 7,000  Level Oakland Center
10:38PM 38.7797 -122.3163 356° North  Level FlightAware Approximate
10:38PM 38.4389 -122.4094 359° North 264 304 8,700  Level Oakland Center
10:39PM 38.5169 -122.4144 357° North 279 321 10,400 1,620 Climbing Oakland Center
10:40PM 38.5922 -122.4172 358° North 275 316 12,000 1,620 Climbing Oakland Center
10:41PM 38.6647 -122.4214 357° North 265 305 13,800 1,620 Climbing Oakland Center
10:42PM 38.7308 -122.4261 357° North 254 292 15,400 1,620 Climbing Oakland Center
10:43PM 38.8053 -122.4292 358° North 260 299 17,200 1,440 Climbing Oakland Center
10:44PM 38.8772 -122.4347 357° North 260 299 18,400 1,200 Climbing Oakland Center
10:45PM 38.9517 -122.4353 360° North 264 304 19,700 1,200 Climbing Oakland Center
10:46PM 39.0281 -122.4403 357° North 270 311 20,900 1,080 Climbing Oakland Center
10:47PM 39.1028 -122.4433 358° North 269 310 22,000 1,080 Climbing Oakland Center
10:48PM 39.1961 -122.4481 358° North 275 316 23,200 1,080 Climbing Oakland Center
10:49PM 39.2750 -122.4539 357° North 279 321 24,300 1,020 Climbing Oakland Center
10:50PM 39.3533 -122.4583 357° North 279 321 25,300 900 Climbing Oakland Center
10:51PM 39.4328 -122.4617 358° North 281 323 26,200 780 Climbing Oakland Center
10:52PM 39.5142 -122.4631 359° North 286 329 27,000 840 Climbing Oakland Center
10:53PM 39.5958 -122.4675 358° North 290 334 28,000 780 Climbing Oakland Center
10:54PM 39.6772 -122.4719 358° North 292 336 28,600 780 Climbing Oakland Center
10:55PM 39.7592 -122.4756 358° North 293 337 29,600 840 Climbing Oakland Center
10:56PM 39.8408 -122.4806 357° North 294 338 30,400 600 Climbing Oakland Center
10:57PM 39.9258 -122.4850 358° North 311 358 30,900 540 Climbing Oakland Center
10:58PM 40.0111 -122.4889 358° North 307 353 31,600 600 Climbing Oakland Center
10:59PM 40.0958 -122.4950 357° North 304 350 32,200 540 Climbing Oakland Center
11:00PM 40.1822 -122.4981 358° North 307 353 32,800 540 Climbing Oakland Center
11:01PM 40.2681 -122.5017 358° North 305 351 33,300 480 Climbing Oakland Center
11:02PM 40.3514 -122.5036 359° North 297 342 33,800 480 Climbing Oakland Center
11:03PM 40.4342 -122.5081 358° North 295 339 34,300 540 Climbing Oakland Center
11:04PM 40.5319 -122.5139 357° North 294 338 35,000 540 Climbing Oakland Center
11:05PM 40.6122 -122.5175 358° North 289 333 35,500 480 Climbing Oakland Center
11:06PM 40.6931 -122.5217 358° North 289 333 36,000 240 Climbing Oakland Center
11:07PM 40.7742 -122.5247 358° North 291 335 36,000  Level Oakland Center
11:08PM 40.8594 -122.5281 358° North 302 348 36,000  Level Oakland Center
11:09PM 40.9456 -122.5331 357° North 308 354 36,000  Level Oakland Center
11:10PM 41.0328 -122.5358 359° North 312 359 36,000  Level Oakland Center
11:11PM 41.1225 -122.5433 356° North 322 371 36,000  Level Oakland Center
11:12PM 41.2117 -122.5472 358° North 322 371 36,000  Level Oakland Center
11:13PM 41.3000 -122.5514 358° North 320 368 36,000  Level Oakland Center
11:14PM 41.4031 -122.5544 359° North 320 368 36,000  Level Oakland Center
11:15PM 41.4386 -122.5597 354° North 322 371 36,000  Level Seattle Center
11:16PM 41.5278 -122.5650 357° North 321 369 36,000  Level Seattle Center
11:17PM 41.6200 -122.5694 358° North 321 369 36,000  Level Seattle Center
11:18PM 41.7067 -122.5722 359° North 320 368 36,000  Level Seattle Center
11:19PM 41.8139 -122.5783 358° North 320 368 36,000  Level Seattle Center
11:20PM 41.9033 -122.5836 357° North 321 369 36,000  Level Seattle Center
11:21PM 41.9933 -122.5886 358° North 322 371 36,000  Level Seattle Center
11:22PM 42.0842 -122.5936 358° North 324 373 36,000  Level Seattle Center
11:23PM 42.1758 -122.5983 358° North 326 375 36,000  Level Seattle Center
11:24PM 42.2639 -122.6022 358° North 320 368 36,000  Level Seattle Center
11:25PM 42.3547 -122.6067 358° North 322 371 36,000  Level Seattle Center
11:26PM 42.4436 -122.6197 354° North 322 371 36,000 -120 Level Seattle Center
11:27PM 42.5214 -122.6669 336° Northwest 306 352 35,800 -600 Descending Seattle Center
11:28PM 42.6042 -122.7058 341° North 311 358 34,800 -840 Descending Seattle Center
11:29PM 42.6897 -122.7506 339° North 324 373 34,200 -420 Descending Seattle Center
11:30PM 42.7725 -122.7908 340° North 325 374 34,000 -120 Descending Seattle Center
11:31PM 42.8547 -122.8242 343° North 314 361 34,000  Level Seattle Center
11:32PM 42.9342 -122.8606 341° North 304 350 34,000  Level Seattle Center
11:33PM 43.0217 -122.8514 North 312 359 34,000  Level Seattle Center
11:34PM 43.1108 -122.8500 North 318 366 34,000  Level Seattle Center
11:35PM 43.2011 -122.8458 North 323 372 34,000  Level Seattle Center
11:36PM 43.2919 -122.8433 North 325 374 34,000  Level Seattle Center
11:37PM 43.4006 -122.8386 North 326 375 34,000 -360 Level Seattle Center
11:38PM 43.4931 -122.8347 North 328 377 33,300 -1,260 Descending Seattle Center
11:39PM 43.5950 -122.8283 North 354 407 31,500 -1,740 Descending Seattle Center
11:40PM 43.7008 -122.8258 North 374 430 29,900 -1,620 Descending Seattle Center
11:41PM 43.8067 -122.8222 North 380 437 28,300 -1,620 Descending Seattle Center
11:42PM 43.9117 -122.8181 North 379 436 26,700 -1,680 Descending Seattle Center
11:43PM 44.0136 -122.8139 North 373 429 25,000 -1,800 Descending Seattle Center
11:44PM 44.1136 -122.8108 North 366 421 23,100 -1,920 Descending Seattle Center
11:45PM 44.2108 -122.8078 North 357 411 21,100 -1,920 Descending Seattle Center
11:46PM 44.3042 -122.8039 North 345 397 19,200 -1,860 Descending Seattle Center
11:47PM 44.3922 -122.8022 North 329 379 17,400 -2,040 Descending Seattle Center
11:48PM 44.4756 -122.7986 North 310 357 15,100 -2,220 Descending Seattle Center
11:49PM 44.5583 -122.7969 North 302 348 12,900 -1,920 Descending Seattle Center
11:50PM 44.6389 -122.7961 360° North 295 339 11,200 -1,800 Descending Seattle Center
11:51PM 44.7144 -122.7908 North 275 316 9,600 -1,740 Descending Seattle Center
11:52PM 44.7786 -122.7867 North 274 315 8,300 -1,680 Descending Seattle Center
11:52PM 44.8050 -122.7856 North 276 318 7,700 -1,620 Descending Seattle Center
11:53PM 44.8544 -122.7867 359° North 275 316 6,700 -1,620 Descending Seattle Center
11:53PM 44.8808 -122.7856 North 275 316 6,100 -1,740 Descending Seattle Center
11:54PM 44.9264 -122.7883 358° North 276 318 5,000 -1,620 Descending Seattle Center
11:54PM 44.9528 -122.7958 349° North 269 310 4,500 -1,140 Descending Seattle Center
11:55PM 45.0158 -122.8136 349° North 253 291 3,500 -840 Descending Seattle Center
11:56PM 45.0683 -122.8050 North 217 250 2,800 -600 Descending Seattle Center
11:57PM 45.1178 -122.7947 North 188 216 2,400 -360 Descending Seattle Center
11:58PM 45.1606 -122.7869 North 165 190 2,100 -600 Descending Seattle Center
11:59PM 45.1947 -122.7792 North 136 157 1,300 -720 Descending Seattle Center
12:00AM 45.2192 -122.7750 North 104 120 700 -480 Descending Seattle Center
12:01AM 45.2489 -122.7694 North 99 114 400 -300 Descending Seattle Center
12:03AM 45.2471 -122.7701 North  Level Estimated
12:10AM 45.2471 -122.7701 North  Level Estimated
12:11AM 45.2471 -122.7701 North  Level Estimated
12:12AM 45.2471 -122.7701 North  Level Estimated
12:13AM 45.2471 -122.7701 North  Level Estimated
12:14AM 45.2471 -122.7701 North  Level Estimated
12:15AM 45.2471 -122.7701 North  Level Estimated